createdAt,value
2018-07-07T00:00:59.877Z,52.65
2018-07-07T00:02:00.660Z,52.80
2018-07-07T00:03:01.440Z,52.75
2018-07-07T00:04:04.423Z,52.27
2018-07-07T00:05:01.993Z,52.53
2018-07-07T00:06:03.788Z,52.49
2018-07-07T00:07:04.567Z,52.83
2018-07-07T00:08:05.335Z,53.08
2018-07-07T00:09:06.124Z,53.16
2018-07-07T00:10:06.882Z,52.72
2018-07-07T00:11:07.698Z,52.99
2018-07-07T00:12:08.456Z,52.85
2018-07-07T00:13:09.225Z,53.05
2018-07-07T00:14:09.998Z,53.25
2018-07-07T00:15:10.771Z,52.96
2018-07-07T00:16:11.572Z,52.91
2018-07-07T00:17:12.343Z,52.96
2018-07-07T00:18:13.126Z,53.13
2018-07-07T00:19:13.897Z,52.74
2018-07-07T00:20:14.672Z,53.51
2018-07-07T00:21:15.471Z,53.13
2018-07-07T00:22:16.242Z,53.46
2018-07-07T00:23:17.023Z,53.06
2018-07-07T00:24:17.795Z,53.04
2018-07-07T00:25:18.567Z,53.29
2018-07-07T00:26:19.363Z,53.62
2018-07-07T00:27:20.148Z,53.82
2018-07-07T00:28:20.922Z,53.38
2018-07-07T00:29:21.682Z,53.64
2018-07-07T00:30:22.468Z,53.66
2018-07-07T00:31:23.253Z,53.44
2018-07-07T00:32:24.030Z,53.58
2018-07-07T00:33:24.800Z,53.39
2018-07-07T00:34:25.577Z,53.81
2018-07-07T00:35:26.351Z,53.68
2018-07-07T00:36:27.149Z,53.56
2018-07-07T00:37:27.928Z,53.65
2018-07-07T00:38:28.696Z,53.66
2018-07-07T00:39:29.475Z,53.35
2018-07-07T00:40:30.247Z,53.42
2018-07-07T00:41:31.048Z,53.78
2018-07-07T00:42:31.828Z,53.68
2018-07-07T00:43:32.597Z,53.37
2018-07-07T00:44:33.377Z,53.76
2018-07-07T00:45:34.150Z,53.92
2018-07-07T00:46:34.949Z,54.17
2018-07-07T00:47:35.725Z,54.10
2018-07-07T00:48:36.501Z,54.16
2018-07-07T00:49:37.269Z,53.91
2018-07-07T00:50:38.053Z,54.09
2018-07-07T00:51:38.865Z,54.02
2018-07-07T00:52:40.090Z,54.35
2018-07-07T01:04:07.395Z,54.06
2018-07-07T01:05:07.094Z,54.08
2018-07-07T01:06:08.874Z,53.95
2018-07-07T01:07:09.644Z,54.19
2018-07-07T01:08:10.444Z,53.66
2018-07-07T01:09:11.219Z,54.17
2018-07-07T01:10:11.993Z,53.74
2018-07-07T01:11:12.781Z,54.08
2018-07-07T01:12:13.525Z,53.98
2018-07-07T01:13:14.320Z,54.25
2018-07-07T01:14:17.855Z,54.02
2018-07-07T01:15:15.615Z,54.28
2018-07-07T01:16:16.389Z,54.18
2018-07-07T01:17:17.164Z,54.12
2018-07-07T01:18:17.983Z,54.56
2018-07-07T01:19:18.747Z,54.43
2018-07-07T01:20:19.529Z,54.28
2018-07-07T01:21:20.290Z,54.29
2018-07-07T01:22:21.067Z,54.40
2018-07-07T01:23:21.868Z,54.56
2018-07-07T01:24:23.645Z,54.58
2018-07-07T01:25:23.417Z,54.98
2018-07-07T01:26:24.189Z,55.36
2018-07-07T01:27:24.965Z,55.45
2018-07-07T01:28:25.770Z,55.29
2018-07-07T01:29:26.546Z,55.02
2018-07-07T01:30:27.322Z,54.83
2018-07-07T01:31:28.089Z,54.89
2018-07-07T01:32:28.864Z,55.05
2018-07-07T01:33:29.663Z,54.83
2018-07-07T01:34:31.431Z,55.09
2018-07-07T01:35:31.211Z,55.17
2018-07-07T01:36:31.975Z,54.87
2018-07-07T01:37:32.747Z,54.63
2018-07-07T01:38:33.572Z,54.75
2018-07-07T01:39:34.319Z,54.96
2018-07-07T01:40:35.096Z,54.91
2018-07-07T01:41:35.868Z,54.76
2018-07-07T01:42:36.642Z,54.96
2018-07-07T01:43:37.438Z,54.86
2018-07-07T01:44:38.214Z,55.25
2018-07-07T01:45:38.985Z,55.65
2018-07-07T01:46:39.760Z,55.19
2018-07-07T01:47:40.533Z,55.40
2018-07-07T01:48:41.361Z,55.38
2018-07-07T01:49:41.099Z,55.40
2018-07-07T01:50:42.873Z,54.98
2018-07-07T01:51:43.647Z,55.40
2018-07-07T01:52:44.422Z,55.41
2018-07-07T01:53:45.221Z,55.56
2018-07-07T01:54:45.996Z,54.93
2018-07-07T01:55:46.770Z,55.13
2018-07-07T01:56:47.542Z,55.13
2018-07-07T01:57:48.318Z,55.00
2018-07-07T01:58:49.114Z,55.16
2018-07-07T01:59:49.887Z,55.05
2018-07-07T02:00:50.658Z,55.54
2018-07-07T02:01:51.436Z,55.18
2018-07-07T02:02:52.206Z,55.30
2018-07-07T02:03:53.009Z,55.52
2018-07-07T02:04:53.775Z,55.77
2018-07-07T02:05:54.549Z,55.26
2018-07-07T02:06:55.319Z,55.32
2018-07-07T02:07:56.091Z,55.30
2018-07-07T02:08:56.891Z,55.58
2018-07-07T02:09:57.666Z,55.58
2018-07-07T02:10:58.446Z,55.40
2018-07-07T02:11:59.223Z,55.36
2018-07-07T02:12:59.991Z,55.08
2018-07-07T02:14:00.800Z,55.26
2018-07-07T02:15:01.576Z,55.58
2018-07-07T02:16:02.345Z,55.65
2018-07-07T02:17:03.118Z,55.21
2018-07-07T02:18:03.896Z,55.64
2018-07-07T02:19:04.691Z,55.03
2018-07-07T02:20:05.474Z,54.84
2018-07-07T02:21:06.251Z,55.44
2018-07-07T02:22:07.022Z,55.87
2018-07-07T02:23:07.791Z,56.10
2018-07-07T02:24:08.597Z,56.37
2018-07-07T02:25:09.371Z,56.30
2018-07-07T02:26:10.147Z,55.75
2018-07-07T02:27:10.920Z,55.93
2018-07-07T02:28:11.694Z,56.19
2018-07-07T02:29:12.494Z,56.03
2018-07-07T02:30:13.267Z,56.39
2018-07-07T02:31:14.066Z,56.14
2018-07-07T02:32:14.831Z,56.15
2018-07-07T02:33:15.599Z,56.24
2018-07-07T02:34:16.400Z,56.09
2018-07-07T02:35:17.174Z,55.76
2018-07-07T02:36:17.947Z,56.17
2018-07-07T02:37:18.718Z,56.53
2018-07-07T02:38:19.501Z,56.97
2018-07-07T02:39:20.292Z,56.95
2018-07-07T02:40:21.071Z,56.57
2018-07-07T02:41:21.846Z,56.62
2018-07-07T02:42:22.624Z,56.28
2018-07-07T02:43:23.399Z,56.41
2018-07-07T02:44:24.197Z,56.55
2018-07-07T02:45:24.978Z,56.50
2018-07-07T02:46:25.841Z,56.35
2018-07-07T02:47:25.529Z,56.61
2018-07-07T02:48:27.300Z,56.83
2018-07-07T02:49:28.100Z,57.07
2018-07-07T02:50:28.874Z,57.01
2018-07-07T02:51:29.645Z,56.92
2018-07-07T02:52:30.428Z,57.03
2018-07-07T02:53:31.609Z,56.91
2018-07-07T02:56:27.991Z,57.08
2018-07-07T02:57:28.755Z,57.07
2018-07-07T02:58:29.517Z,56.80
2018-07-07T02:59:30.295Z,57.42
2018-07-07T03:00:31.093Z,57.33
2018-07-07T03:01:31.860Z,57.28
2018-07-07T03:02:32.636Z,57.16
2018-07-07T03:03:33.406Z,57.39
2018-07-07T03:04:34.183Z,57.33
2018-07-07T03:05:34.989Z,57.19
2018-07-07T03:06:36.774Z,56.92
2018-07-07T03:07:36.519Z,56.94
2018-07-07T03:08:37.286Z,56.81
2018-07-07T03:09:38.070Z,56.94
2018-07-07T03:10:38.865Z,56.51
2018-07-07T03:11:39.644Z,56.52
2018-07-07T03:12:40.414Z,56.76
2018-07-07T03:13:41.183Z,56.72
2018-07-07T03:14:41.956Z,56.65
2018-07-07T03:15:42.762Z,56.74
2018-07-07T03:16:43.523Z,56.51
2018-07-07T03:17:44.296Z,56.63
2018-07-07T03:18:45.070Z,56.50
2018-07-07T03:19:45.852Z,56.84
2018-07-07T03:20:46.640Z,56.76
2018-07-07T03:21:47.433Z,57.25
2018-07-07T03:22:48.189Z,56.83
2018-07-07T03:23:48.961Z,56.52
2018-07-07T03:24:49.729Z,56.86
2018-07-07T03:25:50.523Z,56.91
2018-07-07T03:26:51.295Z,56.49
2018-07-07T03:27:52.076Z,57.13
2018-07-07T03:28:52.838Z,57.32
2018-07-07T03:29:53.613Z,57.10
2018-07-07T03:30:54.441Z,56.88
2018-07-07T03:31:55.202Z,56.81
2018-07-07T03:32:55.969Z,56.83
2018-07-07T03:33:56.743Z,56.69
2018-07-07T03:34:57.515Z,57.24
2018-07-07T03:35:58.316Z,57.27
2018-07-07T03:36:59.090Z,57.13
2018-07-07T03:37:59.918Z,57.16
2018-07-07T03:38:59.639Z,56.58
2018-07-07T03:40:01.416Z,56.37
2018-07-07T03:41:02.220Z,56.33
2018-07-07T03:42:02.987Z,56.52
2018-07-07T03:43:03.767Z,56.95
2018-07-07T03:44:04.534Z,56.83
2018-07-07T03:45:05.309Z,56.58
2018-07-07T03:46:06.115Z,56.76
2018-07-07T03:47:06.879Z,56.48
2018-07-07T03:48:07.644Z,56.90
2018-07-07T03:49:08.418Z,56.96
2018-07-07T03:50:09.200Z,56.58
2018-07-07T03:51:09.991Z,56.86
2018-07-07T03:52:10.763Z,57.31
2018-07-07T03:53:11.541Z,57.13
2018-07-07T03:54:12.325Z,56.70
2018-07-07T03:55:13.090Z,57.10
2018-07-07T03:56:13.890Z,57.35
2018-07-07T03:57:14.665Z,56.99
2018-07-07T03:58:15.438Z,56.83
2018-07-07T03:59:16.213Z,56.80
2018-07-07T04:00:16.987Z,57.47
2018-07-07T04:01:17.798Z,56.63
2018-07-07T04:02:18.573Z,57.24
2018-07-07T04:03:19.333Z,57.25
2018-07-07T04:04:20.098Z,56.83
2018-07-07T04:05:20.874Z,56.68
2018-07-07T04:06:21.677Z,56.90
2018-07-07T04:07:22.524Z,57.00
2018-07-07T04:08:22.217Z,57.26
2018-07-07T04:09:23.986Z,57.37
2018-07-07T04:10:24.768Z,57.67
2018-07-07T04:11:25.565Z,57.78
2018-07-07T04:12:26.342Z,57.68
2018-07-07T04:13:27.113Z,58.01
2018-07-07T04:14:27.884Z,57.84
2018-07-07T04:15:28.656Z,58.21
2018-07-07T04:16:29.457Z,58.20
2018-07-07T04:17:30.231Z,58.09
2018-07-07T04:18:31.014Z,57.74
2018-07-07T04:19:31.773Z,57.04
2018-07-07T04:20:32.541Z,56.66
2018-07-07T04:21:33.364Z,56.98
2018-07-07T04:22:34.115Z,56.77
2018-07-07T04:23:34.897Z,57.45
2018-07-07T04:24:35.666Z,57.51
2018-07-07T04:25:36.443Z,57.34
2018-07-07T04:26:37.246Z,57.60
2018-07-07T04:27:38.015Z,57.42
2018-07-07T04:28:38.805Z,57.34
2018-07-07T04:29:39.569Z,57.13
2018-07-07T04:30:40.361Z,57.37
2018-07-07T04:31:41.142Z,56.96
2018-07-07T04:32:41.925Z,57.21
2018-07-07T04:33:42.697Z,56.81
2018-07-07T04:34:43.469Z,56.47
2018-07-07T04:35:44.243Z,57.17
2018-07-07T04:36:45.043Z,56.73
2018-07-07T04:37:45.816Z,57.27
2018-07-07T04:38:46.593Z,57.54
2018-07-07T04:39:47.366Z,57.10
2018-07-07T04:40:48.137Z,56.81
2018-07-07T04:41:48.932Z,56.83
2018-07-07T04:42:49.708Z,56.50
2018-07-07T04:43:50.480Z,56.22
2018-07-07T04:44:52.670Z,56.14
2018-07-07T04:45:51.947Z,56.19
2018-07-07T04:46:51.123Z,56.16
2018-07-07T04:47:51.321Z,56.01
2018-07-07T04:52:47.969Z,56.10
2018-07-07T04:53:48.737Z,56.08
2018-07-07T04:54:49.508Z,56.14
2018-07-07T04:55:50.281Z,55.99
2018-07-07T04:56:51.052Z,56.80
2018-07-07T04:57:51.873Z,56.85
2018-07-07T04:58:52.627Z,56.42
2018-07-07T04:59:53.397Z,56.13
2018-07-07T05:00:54.174Z,56.25
2018-07-07T05:01:54.937Z,56.62
2018-07-07T05:02:55.744Z,56.07
2018-07-07T05:03:56.520Z,56.21
2018-07-07T05:04:57.307Z,56.76
2018-07-07T05:05:58.074Z,56.61
2018-07-07T05:06:58.847Z,57.26
2018-07-07T05:07:59.646Z,56.62
2018-07-07T05:09:00.416Z,56.15
2018-07-07T05:10:01.187Z,55.81
2018-07-07T05:11:01.966Z,56.08
2018-07-07T05:12:02.731Z,55.71
2018-07-07T05:13:03.526Z,56.36
2018-07-07T05:14:04.304Z,56.03
2018-07-07T05:15:05.074Z,56.33
2018-07-07T05:16:05.850Z,55.96
2018-07-07T05:17:06.618Z,56.20
2018-07-07T05:18:07.422Z,55.80
2018-07-07T05:19:08.193Z,55.94
2018-07-07T05:20:08.966Z,55.88
2018-07-07T05:21:09.738Z,55.96
2018-07-07T05:22:10.512Z,55.70
2018-07-07T05:23:11.305Z,55.51
2018-07-07T05:24:12.080Z,55.66
2018-07-07T05:25:12.853Z,55.33
2018-07-07T05:26:13.621Z,54.92
2018-07-07T05:27:14.394Z,55.05
2018-07-07T05:28:15.188Z,55.28
2018-07-07T05:29:15.961Z,55.60
2018-07-07T05:30:16.745Z,54.85
2018-07-07T05:31:17.508Z,54.67
2018-07-07T05:32:18.289Z,54.67
2018-07-07T05:33:19.079Z,54.82
2018-07-07T05:34:19.851Z,55.38
2018-07-07T05:35:20.627Z,55.74
2018-07-07T05:36:21.396Z,54.85
2018-07-07T05:37:22.219Z,55.46
2018-07-07T05:38:21.969Z,55.33
2018-07-07T05:39:23.746Z,55.33
2018-07-07T05:40:24.520Z,55.14
2018-07-07T05:41:25.289Z,55.50
2018-07-07T05:42:26.065Z,54.79
2018-07-07T05:43:26.871Z,54.80
2018-07-07T05:44:27.634Z,54.44
2018-07-07T05:45:28.420Z,54.51
2018-07-07T05:46:29.188Z,54.21
2018-07-07T05:47:29.966Z,54.23
2018-07-07T05:48:30.761Z,54.27
2018-07-07T05:49:31.540Z,55.06
2018-07-07T05:50:32.307Z,55.09
2018-07-07T05:51:33.079Z,55.48
2018-07-07T05:52:33.849Z,55.40
2018-07-07T05:53:34.659Z,54.83
2018-07-07T05:54:35.438Z,54.83
2018-07-07T05:55:36.205Z,54.99
2018-07-07T05:56:36.998Z,55.07
2018-07-07T05:57:37.771Z,55.12
2018-07-07T05:58:38.572Z,54.63
2018-07-07T05:59:39.350Z,55.18
2018-07-07T06:00:40.128Z,54.80
2018-07-07T06:01:40.903Z,54.96
2018-07-07T06:02:41.700Z,54.92
2018-07-07T06:03:42.472Z,54.51
2018-07-07T06:04:43.241Z,54.40
2018-07-07T06:05:44.017Z,54.17
2018-07-07T06:06:44.807Z,54.00
2018-07-07T06:07:45.588Z,53.90
2018-07-07T06:08:46.368Z,53.50
2018-07-07T06:09:47.165Z,53.94
2018-07-07T06:10:47.941Z,53.84
2018-07-07T06:11:48.693Z,54.18
2018-07-07T06:12:49.471Z,53.68
2018-07-07T06:13:50.274Z,53.50
2018-07-07T06:14:51.057Z,53.04
2018-07-07T06:15:51.820Z,53.22
2018-07-07T06:16:52.596Z,53.01
2018-07-07T06:17:53.372Z,52.81
2018-07-07T06:18:54.168Z,52.66
2018-07-07T06:19:54.936Z,52.69
2018-07-07T06:20:55.721Z,52.60
2018-07-07T06:21:56.482Z,52.57
2018-07-07T06:22:57.268Z,51.99
2018-07-07T06:23:58.056Z,51.97
2018-07-07T06:24:58.827Z,52.24
2018-07-07T06:25:59.613Z,51.84
2018-07-07T06:27:00.377Z,51.65
2018-07-07T06:28:01.151Z,51.65
2018-07-07T06:29:01.953Z,51.53
2018-07-07T06:30:02.734Z,51.30
2018-07-07T06:31:03.501Z,51.45
2018-07-07T06:32:04.299Z,50.98
2018-07-07T06:33:05.053Z,50.91
2018-07-07T06:34:05.852Z,50.84
2018-07-07T06:35:06.631Z,50.69
2018-07-07T06:36:07.414Z,51.14
2018-07-07T06:37:08.180Z,51.16
2018-07-07T06:38:08.951Z,50.60
2018-07-07T06:39:09.747Z,50.79
2018-07-07T06:40:10.520Z,50.40
2018-07-07T06:41:11.713Z,50.01
2018-07-07T06:42:11.916Z,50.43
2018-07-07T06:43:11.139Z,49.90
2018-07-07T06:44:11.362Z,51.20
2018-07-07T06:56:30.625Z,48.69
2018-07-07T06:57:31.389Z,48.98
2018-07-07T06:58:32.164Z,48.87
2018-07-07T06:59:34.012Z,48.59
2018-07-07T07:00:32.755Z,48.37
2018-07-07T07:01:34.527Z,48.21
2018-07-07T07:02:35.300Z,48.23
2018-07-07T07:03:36.072Z,48.09
2018-07-07T07:04:36.880Z,48.17
2018-07-07T07:05:37.642Z,48.01
2018-07-07T07:06:38.639Z,49.05
2018-07-07T07:07:38.354Z,48.21
2018-07-07T07:08:40.126Z,48.13
2018-07-07T07:09:40.935Z,48.00
2018-07-07T07:10:41.704Z,47.92
2018-07-07T07:11:42.491Z,47.82
2018-07-07T07:12:43.262Z,47.89
2018-07-07T07:13:46.192Z,47.85
2018-07-07T07:14:43.831Z,47.73
2018-07-07T07:15:45.608Z,47.66
2018-07-07T07:16:46.409Z,47.58
2018-07-07T07:17:47.148Z,47.59
2018-07-07T07:18:48.164Z,47.61
2018-07-07T07:19:53.954Z,47.48
2018-07-07T07:20:51.637Z,47.43
2018-07-07T07:21:56.711Z,47.31
2018-07-07T07:22:50.269Z,47.30
2018-07-07T07:24:32.898Z,47.20
2018-07-07T07:24:51.854Z,47.20
2018-07-07T07:25:56.314Z,47.10
2018-07-07T07:26:56.206Z,47.01
2018-07-07T07:27:54.974Z,46.99
2018-07-07T07:28:55.822Z,46.92
2018-07-07T07:30:01.566Z,46.86
2018-07-07T07:32:17.698Z,46.67
2018-07-07T07:33:06.792Z,46.62
2018-07-07T07:33:58.524Z,46.50
2018-07-07T07:37:43.124Z,46.10
2018-07-07T07:38:42.442Z,46.09
2018-07-07T07:39:52.341Z,45.96
2018-07-07T07:40:41.879Z,45.82
2018-07-07T07:41:49.661Z,45.65
2018-07-07T07:43:05.275Z,45.49
2018-07-07T07:45:02.129Z,45.37
2018-07-07T07:45:23.987Z,45.24
2018-07-07T07:45:54.751Z,45.13
2018-07-07T07:47:10.292Z,44.99
2018-07-07T07:47:49.715Z,44.89
2018-07-07T08:00:04.153Z,43.14
2018-07-07T08:01:00.478Z,43.11
2018-07-07T08:02:20.773Z,42.49
2018-07-07T08:03:13.343Z,41.79
2018-07-07T08:05:12.075Z,41.16
2018-07-07T08:06:12.530Z,40.56
2018-07-07T08:06:15.104Z,40.03
2018-07-07T08:12:44.024Z,37.06
2018-07-07T09:42:11.364Z,30.27
2018-07-07T10:06:38.489Z,34.06
2018-07-07T10:08:24.734Z,34.09
2018-07-07T10:22:04.597Z,33.56
2018-07-07T10:33:44.858Z,33.59
2018-07-07T10:38:50.628Z,34.51
2018-07-07T10:39:56.395Z,34.62
2018-07-07T10:45:31.683Z,34.90
2018-07-07T10:55:49.049Z,33.61
2018-07-07T10:57:02.322Z,33.73
2018-07-07T10:58:49.118Z,33.47
2018-07-07T10:59:51.910Z,33.65
2018-07-07T11:04:43.898Z,33.00
2018-07-07T11:06:45.643Z,32.87
2018-07-07T11:37:31.296Z,33.28
2018-07-07T11:38:31.148Z,33.30
2018-07-07T11:40:22.003Z,33.28
2018-07-07T11:53:30.525Z,34.03
2018-07-07T11:53:43.243Z,34.01
2018-07-07T11:59:45.560Z,33.23
2018-07-07T12:01:31.489Z,33.26
2018-07-07T12:35:01.687Z,27.31
2018-07-07T12:48:03.407Z,32.25
2018-07-07T12:55:00.971Z,33.06
2018-07-07T13:01:26.526Z,32.96
2018-07-07T13:07:21.899Z,33.12
2018-07-07T13:22:21.964Z,33.28
2018-07-07T13:23:51.367Z,33.40
2018-07-07T13:29:56.516Z,33.82
2018-07-07T13:44:41.658Z,33.05
2018-07-07T15:58:35.401Z,31.06
2018-07-07T16:36:24.422Z,30.32
2018-07-07T21:30:58.929Z,39.49
2018-07-07T21:52:35.605Z,40.14
2018-07-07T21:53:37.964Z,40.12
2018-07-07T21:55:02.938Z,40.76
2018-07-07T21:56:37.732Z,40.85
2018-07-07T21:57:41.762Z,40.87
2018-07-07T21:58:18.565Z,40.75
2018-07-07T22:50:49.720Z,43.94
2018-07-07T22:51:23.134Z,43.87
2018-07-07T23:00:29.677Z,44.61
